Malmstrom A F B, Montana
Current Conditions -  °F | °C
As of 12:56 PM on Thursday 30 Oct 2014 (Local Time) from KGFA Reporting Station
Clear Clear  
Wind Chill: 13°   Ceiling: Unl
Heat Index: 13°   Visibility: 10mi
Dew Point:   Wind: 8mph
Humidity: 40%   Direction: 80°E
Pressure: 30.25"   Gusts: NA
Location:  47.5102°N, 111.1959°W
Report Text: KGFA 301856Z AUTO 08007KT 10SM CLR 13/00 A3025 RMK AO2 SLP262 T01311002
Loading
Personal Weather Stations






























Interactive Weather Map
Tropical Storm Tracking
New forecast layout! Learn more

10-Day Weather Forecast

Advertisements
Track Severe Weather on mobile